KMDT/MDT METAR and TAF weather

Enter ICAO airport designator
Station Type Date Time Source
KMDT METAR 2022/01/29 12:56 UTC NOAA

KMDT 291256Z 34012G18KT 10SM SCT070 BKN140 M08/M18 A2990 RMK AO2 SLP131 T10831183


Station Type Date Time Source
KMDT Decoded METAR 2022/01/29 12:56 UTC NOAA

HARRISBURG INTERNATIONAL AIRPORT, PA, United States (KMDT) 40-12N 076-46W 95M
Jan 29, 2022 - 07:56 AM EST / 2022.01.29 1256 UTC
Wind: from the NNW (340 degrees) at 14 MPH (12 KT) gusting to 21 MPH (18 KT):0
Visibility: 10 mile(s):0
Sky conditions: mostly cloudy
Temperature: 17.1 F (-8.3 C)
Windchill: 3 F (-16 C):1
Dew Point: -0.9 F (-18.3 C)
Relative Humidity: 44%
Pressure (altimeter): 29.9 in. Hg (1012 hPa)
ob: KMDT 291256Z 34012G18KT 10SM SCT070 BKN140 M08/M18 A2990 RMK AO2 SLP131 T10831183
cycle: 13

Station Type Date Time Source
KMDT TAF 2022/01/29 12:24 UTC NOAA

TAF KMDT 291121Z 2912/3012 34011KT P6SM OVC050
FM291400 33014G22KT P6SM BKN050
FM291700 31015G25KT P6SM SCT050
FM300400 31010KT P6SM SKC

Example: see airport list